Henderson, Michigan
Current Conditions -  °F | °C
As of 4:55 AM on Sunday 25 Jan 2015 (Local Time) from KRNP Reporting Station
Overcast Overcast  
Wind Chill: 17°   Ceiling: 3000
Heat Index: 26°   Visibility: 10mi
Dew Point: 21°   Wind: 8mph
Humidity: 82%   Direction: 40°NE
Pressure: 29.78"   Gusts: NA
Location:  43.09°N, 84.2°W
Report Text: KRNP 250955Z AUTO 04007KT 10SM OVC030 M03/M06 A2978 RMK AO2 T10351061
Loading
Personal Weather Stations






























Interactive Weather Map New forecast layout! Learn more

10-Day Weather Forecast

Advertisements
Track Severe Weather on mobile